sensor_id;sensor_type;location;lat;lon;timestamp;P1;durP1;ratioP1;P2;durP2;ratioP2
27539;SDS011;15906;52.046;4.724;2022-09-09T00:00:20;6.78;;;3.92;;
27539;SDS011;15906;52.046;4.724;2022-09-09T00:02:49;7.00;;;4.05;;
27539;SDS011;15906;52.046;4.724;2022-09-09T00:05:38;7.18;;;3.90;;
27539;SDS011;15906;52.046;4.724;2022-09-09T00:08:18;7.25;;;4.45;;
27539;SDS011;15906;52.046;4.724;2022-09-09T00:10:47;8.63;;;4.20;;
27539;SDS011;15906;52.046;4.724;2022-09-09T00:13:21;8.38;;;4.40;;
27539;SDS011;15906;52.046;4.724;2022-09-09T00:15:59;8.88;;;5.03;;
27539;SDS011;15906;52.046;4.724;2022-09-09T00:18:27;6.60;;;4.57;;
27539;SDS011;15906;52.046;4.724;2022-09-09T00:21:11;9.68;;;4.85;;
27539;SDS011;15906;52.046;4.724;2022-09-09T00:23:51;6.45;;;5.10;;
27539;SDS011;15906;52.046;4.724;2022-09-09T00:26:21;6.68;;;5.65;;
27539;SDS011;15906;52.046;4.724;2022-09-09T00:31:28;10.00;;;5.00;;
27539;SDS011;15906;52.046;4.724;2022-09-09T00:33:59;14.50;;;5.28;;
27539;SDS011;15906;52.046;4.724;2022-09-09T00:36:38;11.13;;;4.72;;
27539;SDS011;15906;52.046;4.724;2022-09-09T00:39:04;6.70;;;5.05;;
27539;SDS011;15906;52.046;4.724;2022-09-09T00:41:36;7.38;;;5.00;;
27539;SDS011;15906;52.046;4.724;2022-09-09T00:47:04;9.25;;;5.43;;
27539;SDS011;15906;52.046;4.724;2022-09-09T00:49:49;6.45;;;4.90;;
27539;SDS011;15906;52.046;4.724;2022-09-09T00:55:14;9.90;;;6.30;;
27539;SDS011;15906;52.046;4.724;2022-09-09T00:57:51;8.25;;;6.00;;
27539;SDS011;15906;52.046;4.724;2022-09-09T01:00:19;8.13;;;6.07;;
27539;SDS011;15906;52.046;4.724;2022-09-09T01:07:58;9.77;;;5.97;;
27539;SDS011;15906;52.046;4.724;2022-09-09T01:13:22;12.00;;;6.45;;
27539;SDS011;15906;52.046;4.724;2022-09-09T01:15:58;8.35;;;6.18;;
27539;SDS011;15906;52.046;4.724;2022-09-09T01:18:28;9.35;;;6.05;;
27539;SDS011;15906;52.046;4.724;2022-09-09T01:23:51;9.10;;;6.43;;
27539;SDS011;15906;52.046;4.724;2022-09-09T01:26:41;9.50;;;6.15;;
27539;SDS011;15906;52.046;4.724;2022-09-09T01:29:09;9.18;;;5.60;;
27539;SDS011;15906;52.046;4.724;2022-09-09T01:31:38;9.48;;;6.13;;
27539;SDS011;15906;52.046;4.724;2022-09-09T01:34:10;9.95;;;6.18;;
27539;SDS011;15906;52.046;4.724;2022-09-09T01:36:48;10.68;;;5.78;;
27539;SDS011;15906;52.046;4.724;2022-09-09T01:39:22;8.88;;;6.18;;
27539;SDS011;15906;52.046;4.724;2022-09-09T01:41:47;8.75;;;5.97;;
27539;SDS011;15906;52.046;4.724;2022-09-09T01:44:14;7.60;;;6.18;;
27539;SDS011;15906;52.046;4.724;2022-09-09T01:46:40;9.05;;;6.38;;
27539;SDS011;15906;52.046;4.724;2022-09-09T01:49:06;10.13;;;5.95;;
27539;SDS011;15906;52.046;4.724;2022-09-09T01:51:33;10.23;;;6.40;;
27539;SDS011;15906;52.046;4.724;2022-09-09T01:54:01;10.52;;;6.97;;
27539;SDS011;15906;52.046;4.724;2022-09-09T01:59:11;9.73;;;6.55;;
27539;SDS011;15906;52.046;4.724;2022-09-09T02:04:29;10.77;;;6.25;;
27539;SDS011;15906;52.046;4.724;2022-09-09T02:07:02;9.20;;;6.00;;
27539;SDS011;15906;52.046;4.724;2022-09-09T02:09:37;9.43;;;6.60;;
27539;SDS011;15906;52.046;4.724;2022-09-09T02:12:08;9.98;;;5.90;;
27539;SDS011;15906;52.046;4.724;2022-09-09T02:14:38;11.57;;;6.50;;
27539;SDS011;15906;52.046;4.724;2022-09-09T02:17:08;11.07;;;5.78;;
27539;SDS011;15906;52.046;4.724;2022-09-09T02:19:36;10.73;;;5.90;;
27539;SDS011;15906;52.046;4.724;2022-09-09T02:22:14;10.27;;;6.68;;
27539;SDS011;15906;52.046;4.724;2022-09-09T02:24:43;12.75;;;7.60;;
27539;SDS011;15906;52.046;4.724;2022-09-09T02:27:11;12.13;;;8.02;;
27539;SDS011;15906;52.046;4.724;2022-09-09T02:29:39;8.98;;;6.68;;
27539;SDS011;15906;52.046;4.724;2022-09-09T02:32:08;12.45;;;7.32;;
27539;SDS011;15906;52.046;4.724;2022-09-09T02:34:40;8.45;;;6.75;;
27539;SDS011;15906;52.046;4.724;2022-09-09T02:37:09;13.88;;;7.25;;
27539;SDS011;15906;52.046;4.724;2022-09-09T02:39:36;11.55;;;6.55;;
27539;SDS011;15906;52.046;4.724;2022-09-09T02:42:03;11.65;;;7.35;;
27539;SDS011;15906;52.046;4.724;2022-09-09T02:44:29;9.95;;;7.53;;
27539;SDS011;15906;52.046;4.724;2022-09-09T02:47:02;10.80;;;7.03;;
27539;SDS011;15906;52.046;4.724;2022-09-09T02:52:37;12.38;;;7.32;;
27539;SDS011;15906;52.046;4.724;2022-09-09T02:55:23;9.75;;;7.03;;
27539;SDS011;15906;52.046;4.724;2022-09-09T02:57:57;10.93;;;6.78;;
27539;SDS011;15906;52.046;4.724;2022-09-09T03:00:25;13.07;;;7.50;;
27539;SDS011;15906;52.046;4.724;2022-09-09T03:02:52;13.02;;;7.63;;
27539;SDS011;15906;52.046;4.724;2022-09-09T03:05:19;12.35;;;7.63;;
27539;SDS011;15906;52.046;4.724;2022-09-09T03:07:45;11.60;;;7.80;;
27539;SDS011;15906;52.046;4.724;2022-09-09T03:10:11;12.93;;;7.85;;
27539;SDS011;15906;52.046;4.724;2022-09-09T03:12:36;13.38;;;8.25;;
27539;SDS011;15906;52.046;4.724;2022-09-09T03:15:03;12.73;;;8.25;;
27539;SDS011;15906;52.046;4.724;2022-09-09T03:17:29;14.32;;;8.50;;
27539;SDS011;15906;52.046;4.724;2022-09-09T03:19:55;11.35;;;7.72;;
27539;SDS011;15906;52.046;4.724;2022-09-09T03:22:22;10.88;;;7.55;;
27539;SDS011;15906;52.046;4.724;2022-09-09T03:24:48;13.18;;;7.78;;
27539;SDS011;15906;52.046;4.724;2022-09-09T03:27:13;10.80;;;7.82;;
27539;SDS011;15906;52.046;4.724;2022-09-09T03:29:42;11.52;;;7.25;;
27539;SDS011;15906;52.046;4.724;2022-09-09T03:32:07;10.13;;;7.35;;
27539;SDS011;15906;52.046;4.724;2022-09-09T03:34:35;12.18;;;7.55;;
27539;SDS011;15906;52.046;4.724;2022-09-09T03:37:01;13.32;;;7.55;;
27539;SDS011;15906;52.046;4.724;2022-09-09T03:39:27;10.38;;;6.85;;
27539;SDS011;15906;52.046;4.724;2022-09-09T03:41:53;8.23;;;6.55;;
27539;SDS011;15906;52.046;4.724;2022-09-09T03:44:19;13.75;;;7.07;;
27539;SDS011;15906;52.046;4.724;2022-09-09T03:46:44;13.05;;;7.15;;
27539;SDS011;15906;52.046;4.724;2022-09-09T03:49:10;10.48;;;6.80;;
27539;SDS011;15906;52.046;4.724;2022-09-09T03:51:36;14.00;;;6.60;;
27539;SDS011;15906;52.046;4.724;2022-09-09T03:54:01;8.65;;;6.60;;
27539;SDS011;15906;52.046;4.724;2022-09-09T03:56:29;10.27;;;6.30;;
27539;SDS011;15906;52.046;4.724;2022-09-09T03:58:56;13.30;;;6.07;;
27539;SDS011;15906;52.046;4.724;2022-09-09T04:01:22;12.18;;;5.68;;
27539;SDS011;15906;52.046;4.724;2022-09-09T04:03:48;7.85;;;5.68;;
27539;SDS011;15906;52.046;4.724;2022-09-09T04:06:13;10.80;;;5.85;;
27539;SDS011;15906;52.046;4.724;2022-09-09T04:08:40;9.18;;;5.05;;
27539;SDS011;15906;52.046;4.724;2022-09-09T04:11:06;8.82;;;5.32;;
27539;SDS011;15906;52.046;4.724;2022-09-09T04:13:36;11.88;;;5.43;;
27539;SDS011;15906;52.046;4.724;2022-09-09T04:16:04;7.32;;;5.00;;
27539;SDS011;15906;52.046;4.724;2022-09-09T04:18:30;12.15;;;4.85;;
27539;SDS011;15906;52.046;4.724;2022-09-09T04:20:56;9.65;;;4.57;;
27539;SDS011;15906;52.046;4.724;2022-09-09T04:23:22;10.90;;;5.00;;
27539;SDS011;15906;52.046;4.724;2022-09-09T04:25:52;8.82;;;4.47;;
27539;SDS011;15906;52.046;4.724;2022-09-09T04:28:19;10.35;;;4.38;;
27539;SDS011;15906;52.046;4.724;2022-09-09T04:30:46;5.60;;;4.10;;
27539;SDS011;15906;52.046;4.724;2022-09-09T04:33:12;8.32;;;4.35;;
27539;SDS011;15906;52.046;4.724;2022-09-09T04:35:38;9.63;;;3.80;;
27539;SDS011;15906;52.046;4.724;2022-09-09T04:38:04;8.50;;;3.83;;
27539;SDS011;15906;52.046;4.724;2022-09-09T04:40:32;10.02;;;4.20;;
27539;SDS011;15906;52.046;4.724;2022-09-09T04:42:58;6.60;;;4.07;;
27539;SDS011;15906;52.046;4.724;2022-09-09T04:45:24;10.75;;;4.28;;
27539;SDS011;15906;52.046;4.724;2022-09-09T04:47:51;7.75;;;3.90;;
27539;SDS011;15906;52.046;4.724;2022-09-09T04:50:17;7.88;;;3.65;;
27539;SDS011;15906;52.046;4.724;2022-09-09T04:52:43;6.80;;;3.40;;
27539;SDS011;15906;52.046;4.724;2022-09-09T04:55:09;9.65;;;4.20;;
27539;SDS011;15906;52.046;4.724;2022-09-09T04:57:34;11.40;;;3.88;;
27539;SDS011;15906;52.046;4.724;2022-09-09T05:00:00;6.72;;;3.33;;
27539;SDS011;15906;52.046;4.724;2022-09-09T05:02:27;7.13;;;2.88;;
27539;SDS011;15906;52.046;4.724;2022-09-09T05:04:52;6.10;;;3.17;;
27539;SDS011;15906;52.046;4.724;2022-09-09T05:07:18;8.48;;;3.63;;
27539;SDS011;15906;52.046;4.724;2022-09-09T05:09:44;7.03;;;3.40;;
27539;SDS011;15906;52.046;4.724;2022-09-09T05:12:10;6.18;;;3.47;;
27539;SDS011;15906;52.046;4.724;2022-09-09T05:14:36;5.80;;;3.22;;
27539;SDS011;15906;52.046;4.724;2022-09-09T05:17:02;6.82;;;3.33;;
27539;SDS011;15906;52.046;4.724;2022-09-09T05:19:28;10.13;;;3.30;;
27539;SDS011;15906;52.046;4.724;2022-09-09T05:21:54;5.10;;;3.08;;
27539;SDS011;15906;52.046;4.724;2022-09-09T05:24:19;5.50;;;3.00;;
27539;SDS011;15906;52.046;4.724;2022-09-09T05:26:47;6.80;;;3.38;;
27539;SDS011;15906;52.046;4.724;2022-09-09T05:29:13;8.25;;;2.97;;
27539;SDS011;15906;52.046;4.724;2022-09-09T05:31:39;5.95;;;2.83;;
27539;SDS011;15906;52.046;4.724;2022-09-09T05:34:04;5.03;;;2.78;;
27539;SDS011;15906;52.046;4.724;2022-09-09T05:36:30;8.48;;;3.15;;
27539;SDS011;15906;52.046;4.724;2022-09-09T05:38:55;9.85;;;2.95;;
27539;SDS011;15906;52.046;4.724;2022-09-09T05:41:21;6.32;;;2.65;;
27539;SDS011;15906;52.046;4.724;2022-09-09T05:43:47;8.93;;;3.10;;
27539;SDS011;15906;52.046;4.724;2022-09-09T05:46:23;6.55;;;3.08;;
27539;SDS011;15906;52.046;4.724;2022-09-09T05:48:50;8.20;;;2.75;;
27539;SDS011;15906;52.046;4.724;2022-09-09T05:51:23;9.65;;;3.13;;
27539;SDS011;15906;52.046;4.724;2022-09-09T05:53:51;6.97;;;3.33;;
27539;SDS011;15906;52.046;4.724;2022-09-09T05:56:18;10.40;;;3.03;;
27539;SDS011;15906;52.046;4.724;2022-09-09T05:58:46;6.65;;;3.17;;
27539;SDS011;15906;52.046;4.724;2022-09-09T06:01:19;8.45;;;3.13;;
27539;SDS011;15906;52.046;4.724;2022-09-09T06:03:47;13.13;;;3.38;;
27539;SDS011;15906;52.046;4.724;2022-09-09T06:06:15;7.60;;;3.33;;
27539;SDS011;15906;52.046;4.724;2022-09-09T06:08:50;9.18;;;3.10;;
27539;SDS011;15906;52.046;4.724;2022-09-09T06:13:43;10.38;;;3.35;;
27539;SDS011;15906;52.046;4.724;2022-09-09T06:16:10;15.00;;;3.83;;
27539;SDS011;15906;52.046;4.724;2022-09-09T06:18:37;9.25;;;2.92;;
27539;SDS011;15906;52.046;4.724;2022-09-09T06:21:04;9.57;;;2.97;;
27539;SDS011;15906;52.046;4.724;2022-09-09T06:23:32;25.55;;;5.20;;
27539;SDS011;15906;52.046;4.724;2022-09-09T06:28:39;7.65;;;3.22;;
27539;SDS011;15906;52.046;4.724;2022-09-09T06:31:05;6.13;;;2.75;;
27539;SDS011;15906;52.046;4.724;2022-09-09T06:33:33;9.30;;;2.75;;
27539;SDS011;15906;52.046;4.724;2022-09-09T06:36:00;7.82;;;2.75;;
27539;SDS011;15906;52.046;4.724;2022-09-09T06:38:28;6.60;;;2.80;;
27539;SDS011;15906;52.046;4.724;2022-09-09T06:40:54;8.52;;;2.70;;
27539;SDS011;15906;52.046;4.724;2022-09-09T06:43:21;14.55;;;2.80;;
27539;SDS011;15906;52.046;4.724;2022-09-09T06:45:57;7.53;;;3.33;;
27539;SDS011;15906;52.046;4.724;2022-09-09T06:48:25;11.18;;;3.17;;
27539;SDS011;15906;52.046;4.724;2022-09-09T06:51:10;12.25;;;3.72;;
27539;SDS011;15906;52.046;4.724;2022-09-09T06:53:44;14.80;;;3.78;;
27539;SDS011;15906;52.046;4.724;2022-09-09T06:58:36;10.77;;;4.00;;
27539;SDS011;15906;52.046;4.724;2022-09-09T07:01:06;10.45;;;3.55;;
27539;SDS011;15906;52.046;4.724;2022-09-09T07:03:32;9.27;;;3.95;;
27539;SDS011;15906;52.046;4.724;2022-09-09T07:05:58;14.38;;;5.30;;
27539;SDS011;15906;52.046;4.724;2022-09-09T07:08:24;12.60;;;4.57;;
27539;SDS011;15906;52.046;4.724;2022-09-09T07:10:50;11.10;;;4.60;;
27539;SDS011;15906;52.046;4.724;2022-09-09T07:13:18;15.98;;;4.45;;
27539;SDS011;15906;52.046;4.724;2022-09-09T07:15:51;11.25;;;4.60;;
27539;SDS011;15906;52.046;4.724;2022-09-09T07:18:17;9.68;;;4.50;;
27539;SDS011;15906;52.046;4.724;2022-09-09T07:20:46;8.65;;;4.20;;
27539;SDS011;15906;52.046;4.724;2022-09-09T07:23:18;15.20;;;4.70;;
27539;SDS011;15906;52.046;4.724;2022-09-09T07:25:44;10.80;;;4.70;;
27539;SDS011;15906;52.046;4.724;2022-09-09T07:28:10;17.13;;;5.10;;
27539;SDS011;15906;52.046;4.724;2022-09-09T07:30:35;11.85;;;6.03;;
27539;SDS011;15906;52.046;4.724;2022-09-09T07:33:01;13.23;;;5.32;;
27539;SDS011;15906;52.046;4.724;2022-09-09T07:35:28;9.95;;;5.05;;
27539;SDS011;15906;52.046;4.724;2022-09-09T07:37:54;8.55;;;5.38;;
27539;SDS011;15906;52.046;4.724;2022-09-09T07:40:19;13.00;;;6.10;;
27539;SDS011;15906;52.046;4.724;2022-09-09T07:42:46;9.50;;;5.55;;
27539;SDS011;15906;52.046;4.724;2022-09-09T07:45:12;8.25;;;5.35;;
27539;SDS011;15906;52.046;4.724;2022-09-09T07:47:39;17.10;;;6.75;;
27539;SDS011;15906;52.046;4.724;2022-09-09T07:50:06;14.02;;;5.72;;
27539;SDS011;15906;52.046;4.724;2022-09-09T07:52:33;13.70;;;7.43;;
27539;SDS011;15906;52.046;4.724;2022-09-09T07:54:58;14.43;;;6.35;;
27539;SDS011;15906;52.046;4.724;2022-09-09T07:57:24;10.52;;;5.65;;
27539;SDS011;15906;52.046;4.724;2022-09-09T07:59:50;16.50;;;6.32;;
27539;SDS011;15906;52.046;4.724;2022-09-09T08:02:16;10.25;;;6.13;;
27539;SDS011;15906;52.046;4.724;2022-09-09T08:04:42;6.97;;;5.28;;
27539;SDS011;15906;52.046;4.724;2022-09-09T08:07:07;9.95;;;5.60;;
27539;SDS011;15906;52.046;4.724;2022-09-09T08:09:33;7.53;;;4.97;;
27539;SDS011;15906;52.046;4.724;2022-09-09T08:11:58;13.15;;;5.60;;
27539;SDS011;15906;52.046;4.724;2022-09-09T08:14:24;14.55;;;5.93;;
27539;SDS011;15906;52.046;4.724;2022-09-09T08:16:51;10.63;;;5.80;;
27539;SDS011;15906;52.046;4.724;2022-09-09T08:19:18;11.63;;;5.20;;
27539;SDS011;15906;52.046;4.724;2022-09-09T08:21:44;8.85;;;5.40;;
27539;SDS011;15906;52.046;4.724;2022-09-09T08:24:10;10.98;;;5.47;;
27539;SDS011;15906;52.046;4.724;2022-09-09T08:26:38;11.52;;;5.28;;
27539;SDS011;15906;52.046;4.724;2022-09-09T08:29:06;11.93;;;5.90;;
27539;SDS011;15906;52.046;4.724;2022-09-09T08:31:36;12.27;;;5.60;;
27539;SDS011;15906;52.046;4.724;2022-09-09T08:34:03;8.98;;;5.10;;
27539;SDS011;15906;52.046;4.724;2022-09-09T08:36:32;11.85;;;5.60;;
27539;SDS011;15906;52.046;4.724;2022-09-09T08:38:59;9.55;;;4.78;;
27539;SDS011;15906;52.046;4.724;2022-09-09T08:41:35;7.18;;;4.78;;
27539;SDS011;15906;52.046;4.724;2022-09-09T08:57:52;8.95;;;3.75;;
27539;SDS011;15906;52.046;4.724;2022-09-09T09:00:20;10.32;;;3.95;;
27539;SDS011;15906;52.046;4.724;2022-09-09T09:05:29;9.40;;;3.58;;
27539;SDS011;15906;52.046;4.724;2022-09-09T09:08:25;7.95;;;4.22;;
27539;SDS011;15906;52.046;4.724;2022-09-09T09:11:11;9.13;;;4.75;;
27539;SDS011;15906;52.046;4.724;2022-09-09T09:13:45;10.90;;;4.07;;
27539;SDS011;15906;52.046;4.724;2022-09-09T09:16:19;10.00;;;4.65;;
27539;SDS011;15906;52.046;4.724;2022-09-09T09:18:57;10.80;;;4.90;;
27539;SDS011;15906;52.046;4.724;2022-09-09T09:21:29;8.32;;;4.43;;
27539;SDS011;15906;52.046;4.724;2022-09-09T09:24:04;12.55;;;4.65;;
27539;SDS011;15906;52.046;4.724;2022-09-09T09:26:40;11.95;;;4.93;;
27539;SDS011;15906;52.046;4.724;2022-09-09T09:29:10;13.85;;;4.78;;
27539;SDS011;15906;52.046;4.724;2022-09-09T09:31:42;8.45;;;4.13;;
27539;SDS011;15906;52.046;4.724;2022-09-09T09:34:16;9.85;;;3.78;;
27539;SDS011;15906;52.046;4.724;2022-09-09T09:36:46;8.82;;;4.20;;
27539;SDS011;15906;52.046;4.724;2022-09-09T09:39:33;8.13;;;4.30;;
27539;SDS011;15906;52.046;4.724;2022-09-09T09:42:10;10.77;;;3.72;;
27539;SDS011;15906;52.046;4.724;2022-09-09T09:44:39;8.63;;;3.72;;
27539;SDS011;15906;52.046;4.724;2022-09-09T09:47:20;13.65;;;4.03;;
27539;SDS011;15906;52.046;4.724;2022-09-09T09:49:59;8.10;;;3.97;;
27539;SDS011;15906;52.046;4.724;2022-09-09T09:52:26;10.30;;;4.85;;
27539;SDS011;15906;52.046;4.724;2022-09-09T09:54:54;8.20;;;3.53;;
27539;SDS011;15906;52.046;4.724;2022-09-09T09:57:31;9.43;;;4.03;;
27539;SDS011;15906;52.046;4.724;2022-09-09T10:00:03;9.18;;;3.92;;
27539;SDS011;15906;52.046;4.724;2022-09-09T10:02:39;15.75;;;4.57;;
27539;SDS011;15906;52.046;4.724;2022-09-09T10:05:23;9.35;;;3.78;;
27539;SDS011;15906;52.046;4.724;2022-09-09T10:08:05;10.05;;;4.25;;
27539;SDS011;15906;52.046;4.724;2022-09-09T10:10:45;9.32;;;3.63;;
27539;SDS011;15906;52.046;4.724;2022-09-09T10:18:36;6.57;;;3.08;;
27539;SDS011;15906;52.046;4.724;2022-09-09T10:26:50;6.10;;;3.35;;
27539;SDS011;15906;52.046;4.724;2022-09-09T10:37:42;11.95;;;3.72;;
27539;SDS011;15906;52.046;4.724;2022-09-09T10:40:30;10.98;;;4.00;;
27539;SDS011;15906;52.046;4.724;2022-09-09T10:43:05;14.02;;;4.72;;
27539;SDS011;15906;52.046;4.724;2022-09-09T10:45:54;7.38;;;3.10;;
27539;SDS011;15906;52.046;4.724;2022-09-09T10:48:44;7.53;;;2.95;;
27539;SDS011;15906;52.046;4.724;2022-09-09T10:54:11;10.00;;;3.33;;
27539;SDS011;15906;52.046;4.724;2022-09-09T10:56:54;7.30;;;3.17;;
27539;SDS011;15906;52.046;4.724;2022-09-09T10:59:28;13.02;;;4.03;;
27539;SDS011;15906;52.046;4.724;2022-09-09T11:02:00;7.28;;;3.83;;
27539;SDS011;15906;52.046;4.724;2022-09-09T11:07:34;5.90;;;3.20;;
27539;SDS011;15906;52.046;4.724;2022-09-09T11:10:16;5.07;;;2.95;;
27539;SDS011;15906;52.046;4.724;2022-09-09T11:13:03;7.70;;;2.90;;
27539;SDS011;15906;52.046;4.724;2022-09-09T11:15:41;6.15;;;3.00;;
27539;SDS011;15906;52.046;4.724;2022-09-09T11:18:13;8.30;;;3.00;;
27539;SDS011;15906;52.046;4.724;2022-09-09T11:20:44;9.10;;;3.05;;
27539;SDS011;15906;52.046;4.724;2022-09-09T11:23:13;4.25;;;2.90;;
27539;SDS011;15906;52.046;4.724;2022-09-09T11:25:44;8.18;;;3.08;;
27539;SDS011;15906;52.046;4.724;2022-09-09T11:33:46;5.22;;;2.95;;
27539;SDS011;15906;52.046;4.724;2022-09-09T11:36:26;8.35;;;3.40;;
27539;SDS011;15906;52.046;4.724;2022-09-09T11:41:53;6.82;;;3.22;;
27539;SDS011;15906;52.046;4.724;2022-09-09T11:44:28;8.32;;;4.18;;
27539;SDS011;15906;52.046;4.724;2022-09-09T11:46:55;7.80;;;4.15;;
27539;SDS011;15906;52.046;4.724;2022-09-09T11:49:28;11.85;;;4.25;;
27539;SDS011;15906;52.046;4.724;2022-09-09T11:52:11;7.53;;;4.32;;
27539;SDS011;15906;52.046;4.724;2022-09-09T11:54:49;6.97;;;4.65;;
27539;SDS011;15906;52.046;4.724;2022-09-09T11:57:48;6.15;;;4.03;;
27539;SDS011;15906;52.046;4.724;2022-09-09T12:00:27;11.43;;;4.70;;
27539;SDS011;15906;52.046;4.724;2022-09-09T12:02:58;5.63;;;4.20;;
27539;SDS011;15906;52.046;4.724;2022-09-09T12:05:24;6.97;;;4.70;;
27539;SDS011;15906;52.046;4.724;2022-09-09T12:08:05;9.02;;;5.38;;
27539;SDS011;15906;52.046;4.724;2022-09-09T12:10:35;10.85;;;5.32;;
27539;SDS011;15906;52.046;4.724;2022-09-09T12:13:18;8.70;;;5.30;;
27539;SDS011;15906;52.046;4.724;2022-09-09T12:15:48;9.93;;;6.35;;
27539;SDS011;15906;52.046;4.724;2022-09-09T12:23:52;7.22;;;6.00;;
27539;SDS011;15906;52.046;4.724;2022-09-09T12:26:41;9.75;;;6.78;;
27539;SDS011;15906;52.046;4.724;2022-09-09T12:31:54;11.73;;;6.90;;
27539;SDS011;15906;52.046;4.724;2022-09-09T12:34:38;9.55;;;6.28;;
27539;SDS011;15906;52.046;4.724;2022-09-09T12:39:59;13.52;;;6.80;;
27539;SDS011;15906;52.046;4.724;2022-09-09T12:42:27;16.83;;;8.38;;
27539;SDS011;15906;52.046;4.724;2022-09-09T12:44:56;16.30;;;8.05;;
27539;SDS011;15906;52.046;4.724;2022-09-09T12:47:25;12.77;;;8.23;;
27539;SDS011;15906;52.046;4.724;2022-09-09T12:49:55;9.65;;;7.05;;
27539;SDS011;15906;52.046;4.724;2022-09-09T12:52:26;11.98;;;7.32;;
27539;SDS011;15906;52.046;4.724;2022-09-09T12:54:58;12.32;;;6.57;;
27539;SDS011;15906;52.046;4.724;2022-09-09T12:57:33;12.88;;;7.43;;
27539;SDS011;15906;52.046;4.724;2022-09-09T13:00:24;12.30;;;6.90;;
27539;SDS011;15906;52.046;4.724;2022-09-09T13:03:01;10.80;;;6.60;;
27539;SDS011;15906;52.046;4.724;2022-09-09T13:05:33;9.82;;;6.10;;
27539;SDS011;15906;52.046;4.724;2022-09-09T13:08:01;10.35;;;5.75;;
27539;SDS011;15906;52.046;4.724;2022-09-09T13:10:33;12.55;;;5.30;;
27539;SDS011;15906;52.046;4.724;2022-09-09T13:13:04;9.02;;;5.07;;
27539;SDS011;15906;52.046;4.724;2022-09-09T13:15:38;7.63;;;4.85;;
27539;SDS011;15906;52.046;4.724;2022-09-09T13:18:05;8.75;;;5.30;;
27539;SDS011;15906;52.046;4.724;2022-09-09T13:20:36;8.43;;;4.68;;
27539;SDS011;15906;52.046;4.724;2022-09-09T13:23:02;8.90;;;5.18;;
27539;SDS011;15906;52.046;4.724;2022-09-09T13:25:28;10.25;;;5.30;;
27539;SDS011;15906;52.046;4.724;2022-09-09T13:28:01;6.80;;;4.80;;
27539;SDS011;15906;52.046;4.724;2022-09-09T13:30:30;7.93;;;4.78;;
27539;SDS011;15906;52.046;4.724;2022-09-09T13:33:06;7.60;;;4.20;;
27539;SDS011;15906;52.046;4.724;2022-09-09T13:38:19;7.38;;;4.18;;
27539;SDS011;15906;52.046;4.724;2022-09-09T13:40:53;8.85;;;4.43;;
27539;SDS011;15906;52.046;4.724;2022-09-09T13:43:30;11.65;;;4.40;;
27539;SDS011;15906;52.046;4.724;2022-09-09T13:46:01;8.95;;;4.70;;
27539;SDS011;15906;52.046;4.724;2022-09-09T13:48:29;8.48;;;5.47;;
27539;SDS011;15906;52.046;4.724;2022-09-09T13:50:57;9.55;;;5.15;;
27539;SDS011;15906;52.046;4.724;2022-09-09T13:53:29;7.07;;;4.80;;
27539;SDS011;15906;52.046;4.724;2022-09-09T13:55:55;15.40;;;4.82;;
27539;SDS011;15906;52.046;4.724;2022-09-09T13:58:21;9.10;;;4.38;;
27539;SDS011;15906;52.046;4.724;2022-09-09T14:00:48;8.48;;;4.30;;
27539;SDS011;15906;52.046;4.724;2022-09-09T14:03:14;6.85;;;4.07;;
27539;SDS011;15906;52.046;4.724;2022-09-09T14:05:40;9.15;;;3.42;;
27539;SDS011;15906;52.046;4.724;2022-09-09T14:08:07;5.40;;;3.47;;
27539;SDS011;15906;52.046;4.724;2022-09-09T14:10:39;7.50;;;3.35;;
27539;SDS011;15906;52.046;4.724;2022-09-09T14:13:05;6.53;;;3.13;;
27539;SDS011;15906;52.046;4.724;2022-09-09T14:15:30;5.57;;;2.55;;
27539;SDS011;15906;52.046;4.724;2022-09-09T14:17:56;9.63;;;2.30;;
27539;SDS011;15906;52.046;4.724;2022-09-09T14:20:23;4.68;;;2.03;;
27539;SDS011;15906;52.046;4.724;2022-09-09T14:22:49;4.45;;;2.05;;
27539;SDS011;15906;52.046;4.724;2022-09-09T14:25:14;5.65;;;1.88;;
27539;SDS011;15906;52.046;4.724;2022-09-09T14:27:40;2.60;;;1.50;;
27539;SDS011;15906;52.046;4.724;2022-09-09T14:30:07;2.97;;;1.60;;
27539;SDS011;15906;52.046;4.724;2022-09-09T14:32:33;4.28;;;1.98;;
27539;SDS011;15906;52.046;4.724;2022-09-09T14:34:59;4.40;;;2.38;;
27539;SDS011;15906;52.046;4.724;2022-09-09T14:37:24;4.75;;;2.30;;
27539;SDS011;15906;52.046;4.724;2022-09-09T14:39:50;5.95;;;2.30;;
27539;SDS011;15906;52.046;4.724;2022-09-09T14:42:16;3.65;;;2.22;;
27539;SDS011;15906;52.046;4.724;2022-09-09T14:44:42;4.00;;;2.47;;
27539;SDS011;15906;52.046;4.724;2022-09-09T14:47:07;11.30;;;2.85;;
27539;SDS011;15906;52.046;4.724;2022-09-09T14:49:34;4.97;;;2.85;;
27539;SDS011;15906;52.046;4.724;2022-09-09T14:52:00;5.20;;;2.85;;
27539;SDS011;15906;52.046;4.724;2022-09-09T14:54:25;3.78;;;3.13;;
27539;SDS011;15906;52.046;4.724;2022-09-09T14:56:51;8.93;;;4.07;;
27539;SDS011;15906;52.046;4.724;2022-09-09T14:59:16;7.15;;;3.72;;
27539;SDS011;15906;52.046;4.724;2022-09-09T15:01:42;6.78;;;3.65;;
27539;SDS011;15906;52.046;4.724;2022-09-09T15:04:10;8.57;;;3.33;;
27539;SDS011;15906;52.046;4.724;2022-09-09T15:06:37;8.23;;;2.97;;
27539;SDS011;15906;52.046;4.724;2022-09-09T15:09:04;7.90;;;3.42;;
27539;SDS011;15906;52.046;4.724;2022-09-09T15:11:30;5.28;;;3.00;;
27539;SDS011;15906;52.046;4.724;2022-09-09T15:14:02;8.93;;;3.20;;
27539;SDS011;15906;52.046;4.724;2022-09-09T15:16:28;7.35;;;3.28;;
27539;SDS011;15906;52.046;4.724;2022-09-09T15:18:55;6.30;;;3.10;;
27539;SDS011;15906;52.046;4.724;2022-09-09T15:21:23;7.10;;;2.88;;
27539;SDS011;15906;52.046;4.724;2022-09-09T15:23:54;7.95;;;2.80;;
27539;SDS011;15906;52.046;4.724;2022-09-09T15:26:20;7.00;;;2.38;;
27539;SDS011;15906;52.046;4.724;2022-09-09T15:28:47;7.82;;;2.58;;
27539;SDS011;15906;52.046;4.724;2022-09-09T15:31:21;6.68;;;2.28;;
27539;SDS011;15906;52.046;4.724;2022-09-09T15:33:54;6.90;;;2.17;;
27539;SDS011;15906;52.046;4.724;2022-09-09T15:36:39;6.00;;;2.65;;
27539;SDS011;15906;52.046;4.724;2022-09-09T15:39:06;4.05;;;1.90;;
27539;SDS011;15906;52.046;4.724;2022-09-09T15:41:37;9.63;;;2.00;;
27539;SDS011;15906;52.046;4.724;2022-09-09T15:44:03;4.90;;;2.15;;
27539;SDS011;15906;52.046;4.724;2022-09-09T15:46:30;6.95;;;2.20;;
27539;SDS011;15906;52.046;4.724;2022-09-09T15:48:58;3.78;;;1.70;;
27539;SDS011;15906;52.046;4.724;2022-09-09T15:51:34;7.32;;;2.28;;
27539;SDS011;15906;52.046;4.724;2022-09-09T15:54:00;4.15;;;2.28;;
27539;SDS011;15906;52.046;4.724;2022-09-09T15:56:26;7.03;;;1.90;;
27539;SDS011;15906;52.046;4.724;2022-09-09T15:58:53;3.78;;;2.17;;
27539;SDS011;15906;52.046;4.724;2022-09-09T16:01:20;5.43;;;2.05;;
27539;SDS011;15906;52.046;4.724;2022-09-09T16:03:46;8.98;;;2.47;;
27539;SDS011;15906;52.046;4.724;2022-09-09T16:06:12;7.43;;;2.75;;
27539;SDS011;15906;52.046;4.724;2022-09-09T16:08:40;5.85;;;2.65;;
27539;SDS011;15906;52.046;4.724;2022-09-09T16:11:15;8.52;;;2.72;;
27539;SDS011;15906;52.046;4.724;2022-09-09T16:13:44;6.57;;;2.80;;
27539;SDS011;15906;52.046;4.724;2022-09-09T16:16:11;8.88;;;3.88;;
27539;SDS011;15906;52.046;4.724;2022-09-09T16:18:42;7.25;;;3.22;;
27539;SDS011;15906;52.046;4.724;2022-09-09T16:21:13;8.50;;;4.05;;
27539;SDS011;15906;52.046;4.724;2022-09-09T16:23:44;8.15;;;4.40;;
27539;SDS011;15906;52.046;4.724;2022-09-09T16:26:14;7.93;;;4.53;;
27539;SDS011;15906;52.046;4.724;2022-09-09T16:28:40;10.63;;;4.55;;
27539;SDS011;15906;52.046;4.724;2022-09-09T16:31:07;11.45;;;5.60;;
27539;SDS011;15906;52.046;4.724;2022-09-09T16:33:34;11.05;;;4.93;;
27539;SDS011;15906;52.046;4.724;2022-09-09T16:36:08;11.75;;;5.63;;
27539;SDS011;15906;52.046;4.724;2022-09-09T16:38:35;8.50;;;5.38;;